Time;durP1;ratioP1;P1;durP2;ratioP2;P2;SDS_P1;SDS_P2;PMS_P1;PMS_P2;Temp;Humidity;BMP_temperature;BMP_pressure;BME280_temperature;BME280_humidity;BME280_pressure;Samples;Min_cycle;Max_cycle;Signal;HPM_P1;HPM_P2
2020/12/18 00:00:04;;;;;;;12.70;9.80;;;;;;;6.35;77.12;101858.53;688665;28;13591;-64
2020/12/18 00:00:26;;;;;;;14.57;10.02;;;;;;;6.36;77.04;101854.84;687198;28;69528;-64
2020/12/18 00:00:47;;;;;;;14.45;9.73;;;;;;;6.35;77.17;101853.16;687871;28;44727;-64
2020/12/18 00:01:09;;;;;;;12.85;9.48;;;;;;;6.35;77.07;101849.59;688832;28;23490;-64
2020/12/18 00:01:31;;;;;;;12.98;9.43;;;;;;;6.34;77.17;101856.81;689220;28;15323;-64
2020/12/18 00:01:53;;;;;;;14.07;9.50;;;;;;;6.34;77.01;101858.66;687262;28;69280;-64
2020/12/18 00:02:14;;;;;;;14.10;10.15;;;;;;;6.32;77.25;101851.56;688781;28;14365;-64
2020/12/18 00:02:36;;;;;;;13.05;9.68;;;;;;;6.36;77.20;101849.47;689342;28;901;-64
2020/12/18 00:02:58;;;;;;;13.70;9.80;;;;;;;6.31;77.25;101843.63;689582;28;1210;-64
2020/12/18 00:03:45;;;;;;;12.95;9.35;;;;;;;6.36;77.16;101856.69;684622;28;136769;-64
2020/12/18 00:04:06;;;;;;;14.27;9.70;;;;;;;6.31;77.33;101843.63;688364;28;22391;-64
2020/12/18 00:04:27;;;;;;;12.57;9.40;;;;;;;6.35;77.10;101853.16;687943;28;45267;-64
2020/12/18 00:04:49;;;;;;;13.77;9.93;;;;;;;6.35;77.25;101850.47;688704;28;23385;-64
2020/12/18 00:05:10;;;;;;;14.05;9.75;;;;;;;6.36;77.19;101851.31;688733;28;22512;-63
2020/12/18 00:05:32;;;;;;;13.60;9.67;;;;;;;6.36;77.26;101852.16;688806;28;22441;-64
2020/12/18 00:05:54;;;;;;;14.57;10.00;;;;;;;6.37;77.32;101856.56;687237;28;69370;-64
2020/12/18 00:06:15;;;;;;;15.55;10.00;;;;;;;6.35;77.11;101855.84;688423;28;23266;-64
2020/12/18 00:06:37;;;;;;;15.38;9.65;;;;;;;6.36;77.18;101854.84;687796;28;47252;-64
2020/12/18 00:06:58;;;;;;;13.63;9.93;;;;;;;6.37;77.05;101850.34;688744;28;21512;-64
2020/12/18 00:07:19;;;;;;;13.00;9.75;;;;;;;6.36;77.24;101854.84;687893;28;44317;-64
2020/12/18 00:07:42;;;;;;;15.13;10.30;;;;;;;6.35;76.98;101855.84;688739;28;22424;-64
2020/12/18 00:08:03;;;;;;;13.98;9.88;;;;;;;6.32;77.13;101851.56;687670;28;45415;-64
2020/12/18 00:08:25;;;;;;;14.45;10.02;;;;;;;6.34;77.12;101854.13;687805;28;46294;-64
2020/12/18 00:08:46;;;;;;;14.02;9.77;;;;;;;6.29;77.06;101849.13;688716;28;23286;-64
2020/12/18 00:09:08;;;;;;;14.65;9.93;;;;;;;6.34;77.11;101856.81;687502;28;46450;-64
2020/12/18 00:09:30;;;;;;;15.23;9.85;;;;;;;6.32;77.21;101851.56;688797;28;22196;-64
2020/12/18 00:09:52;;;;;;;14.35;9.65;;;;;;;6.34;77.09;101855.97;691492;28;46306;-64
2020/12/18 00:10:13;;;;;;;15.43;9.65;;;;;;;6.34;77.28;101862.19;691380;28;46425;-64
2020/12/18 00:10:35;;;;;;;14.95;10.02;;;;;;;6.32;77.17;101858.78;691913;28;36394;-64
2020/12/18 00:10:56;;;;;;;15.93;10.32;;;;;;;6.32;77.11;101856.94;692563;28;23389;-64
2020/12/18 00:11:21;;;;;;;15.98;10.13;;;;;;;6.32;77.22;101856.09;692519;28;22995;-64
2020/12/18 00:11:42;;;;;;;14.57;10.00;;;;;;;6.31;77.46;101857.06;687671;28;115238;-64
2020/12/18 00:12:04;;;;;;;14.25;9.35;;;;;;;6.32;77.16;101864.16;689340;28;5595;-64
2020/12/18 00:12:25;;;;;;;14.95;9.98;;;;;;;6.31;77.21;101860.59;688471;28;22447;-64
2020/12/18 00:12:46;;;;;;;13.68;9.60;;;;;;;6.30;77.40;101856.22;688774;28;22464;-64
2020/12/18 00:13:08;;;;;;;13.10;9.90;;;;;;;6.32;77.50;101853.41;688530;28;22751;-64
2020/12/18 00:13:29;;;;;;;14.25;9.75;;;;;;;6.31;77.37;101859.75;686994;28;69306;-64
2020/12/18 00:13:51;;;;;;;14.60;9.90;;;;;;;6.29;77.31;101851.81;688614;28;23449;-64
2020/12/18 00:14:12;;;;;;;12.95;9.65;;;;;;;6.31;77.38;101857.06;687734;28;45063;-64
2020/12/18 00:14:34;;;;;;;15.20;9.50;;;;;;;6.31;77.24;101863.25;688748;28;19262;-64
2020/12/18 00:14:56;;;;;;;15.98;9.88;;;;;;;6.33;77.19;101855.09;689439;28;922;-64
2020/12/18 00:15:17;;;;;;;14.50;9.43;;;;;;;6.34;77.55;101856.81;687515;28;45284;-64
2020/12/18 00:15:38;;;;;;;16.33;10.00;;;;;;;6.32;77.23;101858.78;689951;28;22791;-64
2020/12/18 00:15:59;;;;;;;14.63;10.18;;;;;;;6.29;77.40;101851.81;688947;28;46061;-64
2020/12/18 00:16:22;;;;;;;14.07;10.07;;;;;;;6.29;77.30;101854.50;689479;28;22225;-64
2020/12/18 00:16:43;;;;;;;15.00;9.85;;;;;;;6.30;77.22;101856.22;688668;28;45324;-64
2020/12/18 00:17:05;;;;;;;14.98;10.23;;;;;;;6.31;77.05;101857.91;689041;28;22414;-64
2020/12/18 00:17:26;;;;;;;14.07;10.07;;;;;;;6.32;77.25;101856.09;688606;28;46143;-64
2020/12/18 00:17:47;;;;;;;12.18;9.27;;;;;;;6.30;77.37;101852.66;687801;28;44384;-64
2020/12/18 00:18:09;;;;;;;13.05;9.35;;;;;;;6.31;77.44;101843.63;688630;28;22520;-64
2020/12/18 00:18:30;;;;;;;13.03;9.60;;;;;;;6.30;77.42;101853.53;688600;28;22165;-64
2020/12/18 00:18:52;;;;;;;14.63;9.55;;;;;;;6.31;77.44;101854.38;687657;28;46390;-64
2020/12/18 00:19:13;;;;;;;14.07;9.73;;;;;;;6.30;77.24;101855.34;688412;28;21540;-64
2020/12/18 00:19:35;;;;;;;13.98;9.82;;;;;;;6.30;77.40;101856.22;688708;28;21580;-64
2020/12/18 00:19:56;;;;;;;14.18;10.00;;;;;;;6.31;77.44;101857.06;688000;28;41006;-64
2020/12/18 00:20:17;;;;;;;14.13;9.43;;;;;;;6.33;77.40;101863.16;688689;28;22626;-64
2020/12/18 00:20:38;;;;;;;13.68;9.90;;;;;;;6.33;77.49;101860.47;688480;28;23504;-64
2020/12/18 00:21:00;;;;;;;13.73;10.00;;;;;;;6.36;77.26;101859.38;687996;28;40993;-64
2020/12/18 00:21:22;;;;;;;14.93;10.10;;;;;;;6.34;77.24;101858.66;688608;28;21492;-64
2020/12/18 00:21:43;;;;;;;14.40;10.57;;;;;;;6.34;77.24;101856.81;687347;28;61390;-64
2020/12/18 00:22:05;;;;;;;13.10;9.88;;;;;;;6.34;77.10;101856.81;688906;28;13553;-64
2020/12/18 00:22:27;;;;;;;14.52;10.02;;;;;;;6.32;77.21;101856.94;689537;28;9340;-64
2020/12/18 00:22:48;;;;;;;15.18;10.18;;;;;;;6.31;77.15;101854.38;687706;28;47088;-64
2020/12/18 00:23:10;;;;;;;14.05;9.75;;;;;;;6.34;77.41;101854.13;687864;28;39326;-64
2020/12/18 00:23:32;;;;;;;15.52;10.05;;;;;;;6.31;77.16;101854.38;688871;28;20216;-64
2020/12/18 00:23:53;;;;;;;14.20;9.68;;;;;;;6.33;77.37;101857.78;687255;28;69258;-64
2020/12/18 00:24:15;;;;;;;13.20;9.10;;;;;;;6.34;77.24;101858.66;687829;28;45666;-64
2020/12/18 00:24:37;;;;;;;16.05;9.55;;;;;;;6.34;77.34;101864.03;688593;28;22255;-64
2020/12/18 00:24:58;;;;;;;14.10;9.32;;;;;;;6.33;77.47;101857.78;686819;28;69477;-64
2020/12/18 00:25:20;;;;;;;15.05;9.52;;;;;;;6.36;77.40;101856.69;687798;28;44227;-64
2020/12/18 00:25:46;;;;;;;14.65;9.43;;;;;;;6.32;77.21;101862.31;688703;28;22410;-64
2020/12/18 00:26:08;;;;;;;12.10;9.55;;;;;;;6.34;77.20;101859.50;684689;28;137782;-64
2020/12/18 00:26:33;;;;;;;13.32;9.30;;;;;;;6.34;77.12;101853.28;688751;28;21747;-64
2020/12/18 00:26:54;;;;;;;15.73;9.65;;;;;;;6.34;77.26;101854.13;685365;28;116286;-64
2020/12/18 00:27:16;;;;;;;13.15;9.32;;;;;;;6.32;77.22;101851.56;687718;28;44395;-64
2020/12/18 00:27:38;;;;;;;12.52;9.07;;;;;;;6.34;77.11;101859.50;688548;28;22244;-64
2020/12/18 00:27:59;;;;;;;12.77;9.27;;;;;;;6.34;77.34;101855.97;687779;28;44560;-64
2020/12/18 00:28:20;;;;;;;13.50;9.50;;;;;;;6.33;77.32;101855.09;689344;28;5041;-64
2020/12/18 00:28:43;;;;;;;12.85;9.15;;;;;;;6.34;77.32;101859.50;688150;28;35732;-64
2020/12/18 00:29:04;;;;;;;13.05;9.57;;;;;;;6.35;77.35;101863.03;687147;28;46308;-64
2020/12/18 00:29:25;;;;;;;12.00;9.20;;;;;;;6.34;77.38;101861.34;688782;28;20034;-64
2020/12/18 00:29:48;;;;;;;12.93;9.38;;;;;;;6.34;77.17;101858.66;689499;28;883;-64
2020/12/18 00:30:11;;;;;;;13.02;9.32;;;;;;;6.34;77.17;101861.34;689072;28;12711;-64
2020/12/18 00:30:32;;;;;;;12.35;8.85;;;;;;;6.34;77.20;101862.19;687532;28;56270;-64
2020/12/18 00:30:53;;;;;;;12.65;8.75;;;;;;;6.34;77.29;101858.66;688728;28;23398;-64
2020/12/18 00:31:14;;;;;;;13.15;9.02;;;;;;;6.36;77.29;101864.75;688564;28;21999;-64
2020/12/18 00:31:36;;;;;;;13.20;9.65;;;;;;;6.32;77.28;101866.81;687933;28;41217;-64
2020/12/18 00:31:58;;;;;;;14.27;9.65;;;;;;;6.31;77.25;101859.75;687680;28;46394;-64
2020/12/18 00:32:19;;;;;;;14.65;9.38;;;;;;;6.32;77.33;101864.97;688608;28;21554;-64
2020/12/18 00:32:41;;;;;;;13.90;9.10;;;;;;;6.34;77.42;101866.69;689106;28;13256;-64
2020/12/18 00:33:02;;;;;;;13.38;9.43;;;;;;;6.32;77.35;101856.94;687891;28;42640;-64
2020/12/18 00:33:24;;;;;;;12.73;9.32;;;;;;;6.33;77.20;101860.47;688445;28;23508;-64
2020/12/18 00:33:45;;;;;;;13.05;9.45;;;;;;;6.33;77.30;101863.16;687791;28;46461;-64
2020/12/18 00:34:07;;;;;;;13.55;9.70;;;;;;;6.31;77.11;101857.06;687646;28;46576;-64
2020/12/18 00:34:28;;;;;;;14.35;9.98;;;;;;;6.32;77.24;101869.50;688578;28;21536;-64
2020/12/18 00:34:49;;;;;;;14.95;9.63;;;;;;;6.31;77.19;101857.06;688664;28;21708;-64
2020/12/18 00:35:12;;;;;;;14.55;9.88;;;;;;;6.31;77.38;101865.09;687925;28;46350;-64
2020/12/18 00:35:34;;;;;;;15.15;10.40;;;;;;;6.30;77.39;101871.44;689099;28;1181;-64
2020/12/18 00:35:55;;;;;;;14.60;9.90;;;;;;;6.29;77.28;101859.03;689335;28;897;-64
2020/12/18 00:36:16;;;;;;;14.80;9.52;;;;;;;6.31;77.25;101860.59;688674;28;23528;-64
2020/12/18 00:36:38;;;;;;;15.45;9.63;;;;;;;6.31;77.49;101862.41;688717;28;19730;-64
2020/12/18 00:36:59;;;;;;;13.68;9.48;;;;;;;6.28;77.42;101866.19;687705;28;45268;-64
2020/12/18 00:37:20;;;;;;;14.50;9.60;;;;;;;6.30;77.26;101861.56;689422;28;850;-64
2020/12/18 00:37:42;;;;;;;13.60;9.68;;;;;;;6.31;77.40;101868.63;688840;28;12004;-64
2020/12/18 00:38:04;;;;;;;14.02;10.00;;;;;;;6.32;77.32;101859.63;690017;28;1164;-64
2020/12/18 00:38:25;;;;;;;12.57;9.47;;;;;;;6.33;77.50;101863.16;689549;28;22444;-64
2020/12/18 00:38:47;;;;;;;13.65;9.68;;;;;;;6.30;77.37;101860.69;686513;28;38312;-64
2020/12/18 00:39:08;;;;;;;15.80;9.35;;;;;;;6.34;77.26;101866.69;686196;28;23496;-64
2020/12/18 00:39:30;;;;;;;14.73;9.07;;;;;;;6.34;77.36;101864.03;687751;28;882;-64
2020/12/18 00:39:52;;;;;;;12.73;9.35;;;;;;;6.34;77.24;101866.69;686587;28;46353;-64
2020/12/18 00:40:13;;;;;;;15.25;10.30;;;;;;;6.33;77.26;101863.16;687366;28;46098;-64
2020/12/18 00:40:34;;;;;;;15.25;9.63;;;;;;;6.32;77.24;101864.97;688474;28;21584;-64
2020/12/18 00:40:56;;;;;;;13.52;9.38;;;;;;;6.33;77.33;101868.50;687765;28;46404;-64
2020/12/18 00:41:17;;;;;;;11.40;8.68;;;;;;;6.34;77.35;101869.38;688627;28;23054;-64
2020/12/18 00:41:39;;;;;;;13.02;9.25;;;;;;;6.35;77.31;101869.28;687919;28;46395;-64
2020/12/18 00:42:00;;;;;;;12.88;9.27;;;;;;;6.36;77.23;101867.44;689254;28;944;-64
2020/12/18 00:42:21;;;;;;;12.52;9.20;;;;;;;6.32;77.40;101867.66;689345;28;22064;-64
2020/12/18 00:42:43;;;;;;;13.10;9.75;;;;;;;6.30;77.27;101858.91;688650;28;47286;-64
2020/12/18 00:43:05;;;;;;;12.98;9.88;;;;;;;6.31;77.20;101865.94;689397;28;23517;-64
2020/12/18 00:43:26;;;;;;;12.73;9.10;;;;;;;6.33;77.39;101863.16;688950;28;44400;-64
2020/12/18 00:43:47;;;;;;;13.63;9.55;;;;;;;6.33;77.47;101871.19;688457;28;22418;-64
2020/12/18 00:44:09;;;;;;;15.05;9.52;;;;;;;6.33;77.16;101865.81;688006;28;45242;-64
2020/12/18 00:44:30;;;;;;;14.43;9.10;;;;;;;6.31;77.20;101865.94;691294;28;22713;-64
2020/12/18 00:44:52;;;;;;;12.85;9.10;;;;;;;6.33;77.20;101873.88;690974;28;22421;-64
2020/12/18 00:45:13;;;;;;;12.65;8.68;;;;;;;6.32;77.27;101866.81;687257;28;46364;-64
2020/12/18 00:45:34;;;;;;;13.50;9.23;;;;;;;6.31;77.42;101862.41;685158;28;44402;-64
2020/12/18 00:45:56;;;;;;;13.35;9.95;;;;;;;6.34;77.35;101861.34;686909;28;22403;-64
2020/12/18 00:46:17;;;;;;;12.70;9.63;;;;;;;6.32;77.20;101873.03;686944;28;23648;-64
2020/12/18 00:46:41;;;;;;;14.02;9.73;;;;;;;6.32;77.18;101869.50;687767;28;2805;-64
2020/12/18 00:47:03;;;;;;;12.70;9.40;;;;;;;6.32;77.38;101866.81;682730;28;115083;-64
2020/12/18 00:47:26;;;;;;;13.27;9.45;;;;;;;6.33;77.45;101868.50;683879;28;67493;-64
2020/12/18 00:47:47;;;;;;;13.07;9.13;;;;;;;6.30;77.26;101866.06;687642;28;23419;-64
2020/12/18 00:48:09;;;;;;;12.73;9.18;;;;;;;6.33;77.44;101865.81;688176;28;22438;-64
2020/12/18 00:48:30;;;;;;;11.52;9.27;;;;;;;6.33;77.19;101871.19;687723;28;45921;-64
2020/12/18 00:48:51;;;;;;;13.00;9.52;;;;;;;6.33;77.42;101863.16;689535;28;20198;-64
2020/12/18 00:49:13;;;;;;;13.70;9.90;;;;;;;6.29;77.34;101862.53;687543;28;44407;-64
2020/12/18 00:49:35;;;;;;;13.27;9.60;;;;;;;6.34;77.18;101867.53;688185;28;22232;-64
2020/12/18 00:49:56;;;;;;;11.93;9.10;;;;;;;6.33;77.24;101871.19;687439;28;46548;-64
2020/12/18 00:50:17;;;;;;;11.85;8.63;;;;;;;6.34;77.42;101867.53;688422;28;22422;-64
2020/12/18 00:50:39;;;;;;;12.35;9.35;;;;;;;6.33;77.23;101876.56;687575;28;45327;-64
2020/12/18 00:51:01;;;;;;;13.68;9.93;;;;;;;6.34;77.32;101870.22;689098;28;867;-64
2020/12/18 00:51:24;;;;;;;13.70;9.68;;;;;;;6.32;77.20;101869.50;689997;28;92385;-64
2020/12/18 00:51:50;;;;;;;14.45;9.68;;;;;;;6.32;77.26;101872.19;689457;28;15906;-64
2020/12/18 00:52:11;;;;;;;13.27;9.70;;;;;;;6.32;77.21;101875.72;685570;28;135776;-64
2020/12/18 00:52:33;;;;;;;12.63;9.43;;;;;;;6.31;77.15;101874.00;689228;28;40117;-63
2020/12/18 00:52:56;;;;;;;12.43;8.95;;;;;;;6.31;77.16;101871.31;690430;28;979;-64
2020/12/18 00:53:19;;;;;;;13.75;9.13;;;;;;;6.32;76.93;101874.88;687339;28;1292;-64
2020/12/18 00:53:41;;;;;;;12.50;9.20;;;;;;;6.32;77.40;101872.19;685712;28;36136;-64
2020/12/18 00:54:02;;;;;;;11.45;8.73;;;;;;;6.32;77.40;101870.34;687404;28;1088;-63
2020/12/18 00:54:24;;;;;;;10.95;8.82;;;;;;;6.31;77.19;101870.47;687317;28;20803;-63
2020/12/18 00:54:46;;;;;;;12.85;9.13;;;;;;;6.30;77.27;101872.31;683884;28;44669;-63
2020/12/18 00:55:14;;;;;;;12.00;9.30;;;;;;;6.31;77.10;101868.63;682723;28;121693;-64
2020/12/18 00:55:36;;;;;;;14.13;9.23;;;;;;;6.30;77.37;101868.75;685779;28;34320;-64
2020/12/18 00:55:58;;;;;;;14.23;9.57;;;;;;;6.30;77.12;101866.94;687170;28;22084;-64
2020/12/18 00:56:19;;;;;;;13.77;9.27;;;;;;;6.29;77.38;101870.59;683345;28;46492;-64
2020/12/18 00:56:43;;;;;;;15.07;9.68;;;;;;;6.31;77.41;101870.47;685617;28;22485;-64
2020/12/18 00:57:04;;;;;;;13.40;9.43;;;;;;;6.30;77.44;101874.13;682701;28;92413;-63
2020/12/18 00:57:26;;;;;;;12.68;9.48;;;;;;;6.30;77.14;101876.81;683850;28;22416;-63
2020/12/18 00:57:48;;;;;;;12.13;9.02;;;;;;;6.28;77.21;101868.03;680018;28;67483;-64
2020/12/18 00:58:09;;;;;;;13.38;8.98;;;;;;;6.29;77.22;101869.75;683390;28;1174;-64
2020/12/18 00:58:31;;;;;;;12.82;9.02;;;;;;;6.28;77.29;101874.25;683200;28;45267;-64
2020/12/18 00:58:53;;;;;;;13.23;9.20;;;;;;;6.27;77.48;101875.25;682039;28;22390;-64
2020/12/18 00:59:16;;;;;;;12.07;8.82;;;;;;;6.28;77.21;101876.91;681350;28;57257;-64
2020/12/18 00:59:37;;;;;;;11.95;9.40;;;;;;;6.31;77.32;101873.16;684310;28;22391;-64
2020/12/18 01:00:01;;;;;;;12.90;9.77;;;;;;;6.31;77.20;101875.84;680509;28;92399;-64
2020/12/18 01:00:42;;;;;;;13.15;9.65;;;;;;;6.32;77.08;101877.56;680519;28;137288;-63
2020/12/18 01:01:12;;;;;;;14.95;9.38;;;;;;;6.28;77.02;101868.03;681575;28;137817;-64
2020/12/18 01:01:33;;;;;;;13.88;9.35;;;;;;;6.31;77.10;101873.16;685336;28;45270;-64
2020/12/18 01:01:57;;;;;;;12.43;9.40;;;;;;;6.32;77.11;101877.56;686734;28;69514;-64
2020/12/18 01:02:18;;;;;;;12.18;9.20;;;;;;;6.32;76.99;101880.25;688720;28;47316;-64
2020/12/18 01:02:40;;;;;;;12.35;9.23;;;;;;;6.32;77.09;101872.19;689331;28;21080;-64
2020/12/18 01:03:01;;;;;;;12.30;9.15;;;;;;;6.33;77.08;101879.25;688986;28;22387;-64
2020/12/18 01:03:23;;;;;;;12.65;9.48;;;;;;;6.32;77.05;101869.50;688648;28;46377;-64
2020/12/18 01:03:44;;;;;;;12.57;9.15;;;;;;;6.32;77.02;101882.91;692131;28;23495;-64
2020/12/18 01:04:06;;;;;;;12.75;8.98;;;;;;;6.31;77.17;101873.16;691961;28;46295;-64
2020/12/18 01:04:28;;;;;;;13.93;9.35;;;;;;;6.31;77.02;101873.16;691347;28;46426;-64
2020/12/18 01:04:50;;;;;;;12.90;9.10;;;;;;;6.31;77.06;101879.38;689170;28;22369;-64
2020/12/18 01:05:11;;;;;;;12.73;9.25;;;;;;;6.32;77.01;101875.72;688674;28;44549;-64
2020/12/18 01:05:32;;;;;;;11.35;8.98;;;;;;;6.32;77.20;101877.56;689877;28;21568;-64
2020/12/18 01:05:54;;;;;;;12.18;9.23;;;;;;;6.32;77.08;101874.88;689468;28;47170;-64
2020/12/18 01:06:17;;;;;;;10.93;8.95;;;;;;;6.32;77.14;101870.34;690965;28;44374;-64
2020/12/18 01:06:49;;;;;;;14.75;9.05;;;;;;;6.32;77.15;101867.66;685210;28;137727;-64
2020/12/18 01:07:11;;;;;;;16.30;9.45;;;;;;;6.31;76.96;101876.69;687527;28;46414;-64
2020/12/18 01:07:33;;;;;;;12.88;9.30;;;;;;;6.32;77.02;101874.88;687289;28;45913;-64
2020/12/18 01:07:55;;;;;;;12.27;9.27;;;;;;;6.30;76.97;101871.44;687125;28;23477;-64
2020/12/18 01:08:18;;;;;;;11.73;9.02;;;;;;;6.32;77.13;101870.34;681012;28;92622;-64
2020/12/18 01:08:40;;;;;;;12.40;9.32;;;;;;;6.32;76.86;101873.03;683778;28;36471;-64
2020/12/18 01:09:02;;;;;;;12.63;9.10;;;;;;;6.32;77.16;101872.19;684904;28;8863;-64
2020/12/18 01:09:29;;;;;;;13.57;8.95;;;;;;;6.31;76.92;101876.69;681442;28;157876;-64
2020/12/18 01:09:58;;;;;;;10.80;8.80;;;;;;;6.29;76.79;101867.91;681758;28;161996;-64
2020/12/18 01:10:20;;;;;;;14.95;9.63;;;;;;;6.30;76.88;101874.13;683173;28;46426;-64
2020/12/18 01:10:41;;;;;;;15.52;9.48;;;;;;;6.29;76.81;101872.44;683108;28;46448;-64
2020/12/18 01:11:04;;;;;;;11.80;8.85;;;;;;;6.28;77.03;101874.25;687467;28;23478;-64
2020/12/18 01:11:26;;;;;;;13.98;9.20;;;;;;;6.29;76.78;101869.75;682349;28;67506;-64
2020/12/18 01:11:47;;;;;;;13.40;9.07;;;;;;;6.29;76.98;101861.69;684866;28;46439;-64
2020/12/18 01:12:11;;;;;;;13.40;9.23;;;;;;;6.31;76.89;101870.47;685553;28;44751;-64
2020/12/18 01:12:32;;;;;;;12.00;9.13;;;;;;;6.30;76.69;101871.44;686724;28;66831;-64
2020/12/18 01:12:54;;;;;;;12.52;9.15;;;;;;;6.26;76.70;101870.84;688133;28;21536;-64
2020/12/18 01:13:20;;;;;;;12.40;8.90;;;;;;;6.28;76.84;101874.25;684516;28;138102;-64
2020/12/18 01:13:42;;;;;;;12.05;9.07;;;;;;;6.25;76.86;101865.59;685664;28;44988;-64
2020/12/18 01:14:04;;;;;;;13.13;9.18;;;;;;;6.26;76.70;101875.34;688765;28;44487;-63
2020/12/18 01:14:31;;;;;;;12.90;9.63;;;;;;;6.25;76.85;101870.97;684336;28;60970;-64
2020/12/18 01:14:55;;;;;;;12.57;8.93;;;;;;;6.24;76.79;101866.59;682138;28;115191;-64
2020/12/18 01:15:17;;;;;;;12.52;9.02;;;;;;;6.26;76.92;101875.34;682736;28;9823;-64
2020/12/18 01:15:38;;;;;;;12.15;9.10;;;;;;;6.24;76.71;101870.09;681582;28;46277;-64
2020/12/18 01:16:13;;;;;;;11.80;8.93;;;;;;;6.26;76.72;101875.34;680797;28;126018;-64
2020/12/18 01:16:49;;;;;;;11.98;8.98;;;;;;;6.24;76.93;101878.16;680736;28;124038;-64
2020/12/18 01:17:10;;;;;;;11.02;8.65;;;;;;;6.23;76.83;101876.44;678241;28;130771;-64
2020/12/18 01:17:31;;;;;;;14.05;9.35;;;;;;;6.23;76.81;101872.91;685878;28;10721;-64
2020/12/18 01:17:54;;;;;;;12.75;9.20;;;;;;;6.22;76.70;101873.88;686493;28;34237;-64
2020/12/18 01:18:16;;;;;;;11.32;8.55;;;;;;;6.22;77.00;101873.88;684439;28;44374;-64
2020/12/18 01:18:42;;;;;;;12.27;9.10;;;;;;;6.21;76.90;101873.03;680887;28;159352;-64
2020/12/18 01:19:03;;;;;;;13.98;9.23;;;;;;;6.23;77.03;101875.59;687315;28;46011;-64
2020/12/18 01:19:30;;;;;;;11.77;8.80;;;;;;;6.21;76.75;101875.72;682072;28;138245;-64
2020/12/18 01:19:51;;;;;;;11.43;8.65;;;;;;;6.21;76.98;101875.72;683410;28;46407;-64
2020/12/18 01:20:13;;;;;;;13.10;9.05;;;;;;;6.21;76.85;101877.56;682491;28;43889;-64
2020/12/18 01:20:35;;;;;;;12.98;9.27;;;;;;;6.21;76.77;101877.56;685209;28;21511;-64
2020/12/18 01:20:59;;;;;;;13.02;9.27;;;;;;;6.19;76.75;101877.69;683176;28;46553;-64
2020/12/18 01:21:20;;;;;;;12.25;9.10;;;;;;;6.20;76.74;101876.69;682677;28;92336;-64
2020/12/18 01:21:42;;;;;;;13.95;9.95;;;;;;;6.19;76.97;101880.34;684620;28;45356;-64
2020/12/18 01:22:04;;;;;;;11.85;9.00;;;;;;;6.18;77.04;101877.78;685324;28;22419;-64
2020/12/18 01:22:38;;;;;;;12.75;9.23;;;;;;;6.18;76.89;101877.78;679691;28;137530;-64
2020/12/18 01:22:59;;;;;;;13.05;9.23;;;;;;;6.18;77.03;101875.13;685632;28;46406;-64
2020/12/18 01:23:21;;;;;;;12.20;8.27;;;;;;;6.15;77.01;101873.50;683135;28;23617;-64
2020/12/18 01:23:48;;;;;;;12.95;9.35;;;;;;;6.17;76.92;101876.91;681033;28;84665;-64
2020/12/18 01:24:09;;;;;;;11.95;9.20;;;;;;;6.18;77.08;101886.69;682294;28;44319;-64
2020/12/18 01:24:35;;;;;;;11.57;9.00;;;;;;;6.17;76.87;101876.91;682415;28;115107;-64
2020/12/18 01:24:58;;;;;;;12.18;8.80;;;;;;;6.18;77.11;101883.16;682806;28;91688;-64
2020/12/18 01:25:26;;;;;;;11.85;8.57;;;;;;;6.17;76.91;101886.81;686829;28;62123;-64
2020/12/18 01:25:47;;;;;;;13.07;9.23;;;;;;;6.17;76.67;101884.13;687209;28;56240;-64
2020/12/18 01:26:09;;;;;;;13.80;9.52;;;;;;;6.17;76.92;101884.13;688071;28;24252;-64
2020/12/18 01:26:31;;;;;;;11.93;9.18;;;;;;;6.17;77.06;101878.75;686903;28;1029;-64
2020/12/18 01:26:52;;;;;;;13.05;9.55;;;;;;;6.17;77.12;101881.44;687705;28;16126;-64
2020/12/18 01:27:14;;;;;;;12.48;9.40;;;;;;;6.18;77.05;101880.47;686640;28;6996;-64
2020/12/18 01:27:35;;;;;;;11.30;8.90;;;;;;;6.17;76.80;101884.97;683668;28;46300;-64
2020/12/18 01:27:56;;;;;;;11.23;8.75;;;;;;;6.17;76.90;101887.66;686837;28;16855;-64
2020/12/18 01:28:18;;;;;;;12.10;8.73;;;;;;;6.16;76.72;101882.41;687496;28;22701;-64
2020/12/18 01:28:39;;;;;;;12.10;8.45;;;;;;;6.17;76.78;101886.81;685806;28;44330;-64
2020/12/18 01:29:01;;;;;;;12.65;8.77;;;;;;;6.17;77.08;101886.81;686454;28;45254;-64
2020/12/18 01:29:22;;;;;;;12.23;8.88;;;;;;;6.15;76.78;101883.41;688619;28;23512;-64
2020/12/18 01:29:48;;;;;;;13.07;9.50;;;;;;;6.17;76.73;101882.28;686396;28;115014;-64
2020/12/18 01:30:10;;;;;;;12.10;9.32;;;;;;;6.16;76.93;101877.91;689115;28;41781;-64
2020/12/18 01:30:38;;;;;;;12.00;8.63;;;;;;;6.16;76.82;101885.97;684412;28;135923;-64
2020/12/18 01:30:59;;;;;;;12.55;8.93;;;;;;;6.16;76.89;101890.44;685628;28;22397;-64
2020/12/18 01:31:22;;;;;;;12.40;8.75;;;;;;;6.13;76.92;101887.03;684642;28;44452;-64
2020/12/18 01:31:45;;;;;;;12.80;8.52;;;;;;;6.15;76.87;101886.09;686953;28;69425;-64
2020/12/18 01:32:06;;;;;;;11.27;8.82;;;;;;;6.16;77.01;101893.13;689214;28;28453;-64
2020/12/18 01:32:28;;;;;;;12.50;9.45;;;;;;;6.16;76.78;101890.44;686294;28;45212;-63
2020/12/18 01:32:51;;;;;;;11.73;8.82;;;;;;;6.16;77.00;101888.66;686834;28;33387;-64
2020/12/18 01:33:12;;;;;;;13.13;8.70;;;;;;;6.17;76.83;101884.13;684075;28;30908;-64
2020/12/18 01:33:34;;;;;;;14.80;8.90;;;;;;;6.16;76.90;101885.97;686979;28;19901;-64
2020/12/18 01:33:59;;;;;;;11.85;8.48;;;;;;;6.15;76.91;101886.09;683128;28;138923;-64
2020/12/18 01:34:22;;;;;;;12.32;8.80;;;;;;;6.12;76.74;101882.66;686692;28;67840;-64
2020/12/18 01:34:44;;;;;;;12.70;8.77;;;;;;;6.14;77.13;101887.88;688341;28;23415;-64
2020/12/18 01:35:09;;;;;;;13.10;8.80;;;;;;;6.15;76.77;101891.44;685846;28;115193;-64
2020/12/18 01:35:37;;;;;;;12.57;9.10;;;;;;;6.11;76.77;101883.63;688172;28;137579;-64
2020/12/18 01:36:01;;;;;;;12.75;9.00;;;;;;;6.12;77.02;101898.75;689877;28;90745;-64
2020/12/18 01:36:23;;;;;;;14.10;9.10;;;;;;;6.12;77.10;101893.38;688593;28;45740;-64
2020/12/18 01:36:48;;;;;;;12.23;9.13;;;;;;;6.12;77.13;101889.84;686843;28;90723;-64
2020/12/18 01:37:22;;;;;;;12.68;8.70;;;;;;;6.11;76.88;101889.00;680367;28;137417;-64
2020/12/18 01:37:51;;;;;;;14.48;8.95;;;;;;;6.11;77.02;101891.69;681372;28;137816;-64
2020/12/18 01:38:12;;;;;;;11.65;8.70;;;;;;;6.10;76.81;101887.28;689325;28;44399;-63
2020/12/18 01:38:37;;;;;;;12.55;8.80;;;;;;;6.11;77.12;101889.00;687161;28;92338;-64
2020/12/18 01:38:58;;;;;;;10.88;8.60;;;;;;;6.11;76.90;101890.81;688682;28;45250;-64
2020/12/18 01:39:20;;;;;;;12.60;8.95;;;;;;;6.10;76.88;101889.97;690012;28;21409;-64
2020/12/18 01:39:41;;;;;;;13.50;9.15;;;;;;;6.12;76.81;101884.47;688296;28;46002;-63
2020/12/18 01:40:03;;;;;;;11.77;9.07;;;;;;;6.12;76.89;101889.84;686451;28;12602;-61
2020/12/18 01:40:34;;;;;;;11.80;8.93;;;;;;;6.11;76.88;101894.38;681679;28;62179;-64
2020/12/18 01:40:56;;;;;;;12.25;9.00;;;;;;;6.13;77.08;101899.63;682923;28;53800;-64
2020/12/18 01:41:18;;;;;;;12.98;8.77;;;;;;;6.07;76.97;101884.84;684540;28;1078;-64
2020/12/18 01:41:44;;;;;;;12.60;8.82;;;;;;;6.11;77.21;101890.81;683598;28;37651;-63
2020/12/18 01:42:07;;;;;;;13.52;9.40;;;;;;;6.11;76.94;101894.38;679707;28;65422;-64
2020/12/18 01:42:29;;;;;;;12.38;8.90;;;;;;;6.10;77.10;101891.81;683070;28;22537;-63
2020/12/18 01:42:51;;;;;;;12.27;8.75;;;;;;;6.12;77.08;101897.91;683566;28;36739;-64
2020/12/18 01:43:13;;;;;;;12.00;9.02;;;;;;;6.11;77.10;101894.38;684343;28;46433;-64
2020/12/18 01:43:39;;;;;;;11.95;9.18;;;;;;;6.10;77.04;101892.66;679712;28;149558;-64
2020/12/18 01:44:01;;;;;;;11.80;9.18;;;;;;;6.12;77.05;101895.22;682176;28;46504;-64
2020/12/18 01:44:23;;;;;;;12.93;8.57;;;;;;;6.12;77.12;101889.84;683556;28;70419;-64
2020/12/18 01:44:49;;;;;;;12.50;9.00;;;;;;;6.12;76.98;101898.75;681094;28;116000;-64
2020/12/18 01:45:14;;;;;;;13.25;8.90;;;;;;;6.13;77.09;101899.63;684429;28;136541;-64
2020/12/18 01:46:03;;;;;;;14.02;9.35;;;;;;;6.13;76.88;101892.41;685683;28;136310;-63
2020/12/18 01:46:27;;;;;;;11.90;9.32;;;;;;;6.12;77.04;101890.69;688969;28;113806;-64